sensor_id;sensor_type;location;lat;lon;timestamp;temperature;humidity
52709;DHT22;38606;52.986;6.980;2023-02-02T00:00:50;4.60;99.90
52709;DHT22;38606;52.986;6.980;2023-02-02T00:03:16;5.10;99.90
52709;DHT22;38606;52.986;6.980;2023-02-02T00:05:52;4.10;99.90
52709;DHT22;38606;52.986;6.980;2023-02-02T00:08:19;4.30;99.90
52709;DHT22;38606;52.986;6.980;2023-02-02T00:10:46;3.30;99.90
52709;DHT22;38606;52.986;6.980;2023-02-02T00:13:12;4.70;99.90
52709;DHT22;38606;52.986;6.980;2023-02-02T00:15:39;4.10;99.90
52709;DHT22;38606;52.986;6.980;2023-02-02T00:18:05;4.00;99.90
52709;DHT22;38606;52.986;6.980;2023-02-02T00:20:31;4.10;99.90
52709;DHT22;38606;52.986;6.980;2023-02-02T00:22:59;4.10;99.90
52709;DHT22;38606;52.986;6.980;2023-02-02T00:25:25;4.40;99.90
52709;DHT22;38606;52.986;6.980;2023-02-02T00:27:51;4.00;99.90
52709;DHT22;38606;52.986;6.980;2023-02-02T00:30:16;4.30;99.90
52709;DHT22;38606;52.986;6.980;2023-02-02T00:32:42;4.10;99.90
52709;DHT22;38606;52.986;6.980;2023-02-02T00:35:08;4.10;99.90
52709;DHT22;38606;52.986;6.980;2023-02-02T00:37:34;4.10;99.90
52709;DHT22;38606;52.986;6.980;2023-02-02T00:40:00;5.20;99.90
52709;DHT22;38606;52.986;6.980;2023-02-02T00:42:26;4.80;99.90
52709;DHT22;38606;52.986;6.980;2023-02-02T00:44:51;4.10;99.90
52709;DHT22;38606;52.986;6.980;2023-02-02T00:47:35;3.90;99.90
52709;DHT22;38606;52.986;6.980;2023-02-02T00:50:01;5.10;99.90
52709;DHT22;38606;52.986;6.980;2023-02-02T00:52:27;3.90;99.90
52709;DHT22;38606;52.986;6.980;2023-02-02T00:54:53;4.10;99.90
52709;DHT22;38606;52.986;6.980;2023-02-02T00:57:19;4.80;99.90
52709;DHT22;38606;52.986;6.980;2023-02-02T00:59:45;3.90;99.90
52709;DHT22;38606;52.986;6.980;2023-02-02T01:02:11;4.00;99.90
52709;DHT22;38606;52.986;6.980;2023-02-02T01:04:37;4.00;99.90
52709;DHT22;38606;52.986;6.980;2023-02-02T01:07:03;4.30;99.90
52709;DHT22;38606;52.986;6.980;2023-02-02T01:09:29;4.00;99.90
52709;DHT22;38606;52.986;6.980;2023-02-02T01:11:55;5.40;99.90
52709;DHT22;38606;52.986;6.980;2023-02-02T01:14:20;5.30;99.90
52709;DHT22;38606;52.986;6.980;2023-02-02T01:16:47;4.20;99.90
52709;DHT22;38606;52.986;6.980;2023-02-02T01:19:13;4.40;99.90
52709;DHT22;38606;52.986;6.980;2023-02-02T01:21:39;4.30;99.90
52709;DHT22;38606;52.986;6.980;2023-02-02T01:24:05;4.20;99.90
52709;DHT22;38606;52.986;6.980;2023-02-02T01:26:31;4.20;99.90
52709;DHT22;38606;52.986;6.980;2023-02-02T01:28:56;5.20;99.90
52709;DHT22;38606;52.986;6.980;2023-02-02T01:31:22;5.00;99.90
52709;DHT22;38606;52.986;6.980;2023-02-02T01:33:49;5.30;99.90
52709;DHT22;38606;52.986;6.980;2023-02-02T01:36:17;4.70;99.90
52709;DHT22;38606;52.986;6.980;2023-02-02T01:38:44;4.60;99.90
52709;DHT22;38606;52.986;6.980;2023-02-02T01:41:15;5.20;99.90
52709;DHT22;38606;52.986;6.980;2023-02-02T01:46:11;4.60;99.90
52709;DHT22;38606;52.986;6.980;2023-02-02T01:48:40;6.00;99.90
52709;DHT22;38606;52.986;6.980;2023-02-02T01:51:11;4.90;99.90
52709;DHT22;38606;52.986;6.980;2023-02-02T01:53:38;4.80;99.90
52709;DHT22;38606;52.986;6.980;2023-02-02T01:56:06;4.90;99.90
52709;DHT22;38606;52.986;6.980;2023-02-02T01:58:36;5.30;99.90
52709;DHT22;38606;52.986;6.980;2023-02-02T02:01:03;4.90;99.90
52709;DHT22;38606;52.986;6.980;2023-02-02T02:03:31;4.60;99.90
52709;DHT22;38606;52.986;6.980;2023-02-02T02:06:00;4.80;99.90
52709;DHT22;38606;52.986;6.980;2023-02-02T02:08:29;5.80;99.90
52709;DHT22;38606;52.986;6.980;2023-02-02T02:10:57;5.00;99.90
52709;DHT22;38606;52.986;6.980;2023-02-02T02:13:24;4.80;99.90
52709;DHT22;38606;52.986;6.980;2023-02-02T02:16:59;5.50;99.90
52709;DHT22;38606;52.986;6.980;2023-02-02T02:22:27;5.00;99.90
52709;DHT22;38606;52.986;6.980;2023-02-02T02:29:17;4.80;99.90
52709;DHT22;38606;52.986;6.980;2023-02-02T02:32:03;5.70;99.90
52709;DHT22;38606;52.986;6.980;2023-02-02T02:34:53;5.10;99.90
52709;DHT22;38606;52.986;6.980;2023-02-02T02:37:34;4.70;99.90
52709;DHT22;38606;52.986;6.980;2023-02-02T02:40:15;5.00;99.90
52709;DHT22;38606;52.986;6.980;2023-02-02T02:42:47;5.40;99.90
52709;DHT22;38606;52.986;6.980;2023-02-02T02:45:16;5.20;99.90
52709;DHT22;38606;52.986;6.980;2023-02-02T02:47:42;4.90;99.90
52709;DHT22;38606;52.986;6.980;2023-02-02T02:50:09;5.00;99.90
52709;DHT22;38606;52.986;6.980;2023-02-02T02:52:36;4.90;99.90
52709;DHT22;38606;52.986;6.980;2023-02-02T02:55:03;5.60;99.90
52709;DHT22;38606;52.986;6.980;2023-02-02T03:00:58;5.10;99.90
52709;DHT22;38606;52.986;6.980;2023-02-02T03:11:26;5.20;99.90
52709;DHT22;38606;52.986;6.980;2023-02-02T03:13:52;5.20;99.90
52709;DHT22;38606;52.986;6.980;2023-02-02T03:16:19;5.50;99.90
52709;DHT22;38606;52.986;6.980;2023-02-02T03:18:44;6.50;99.90
52709;DHT22;38606;52.986;6.980;2023-02-02T03:21:10;5.40;99.90
52709;DHT22;38606;52.986;6.980;2023-02-02T03:23:37;6.50;99.90
52709;DHT22;38606;52.986;6.980;2023-02-02T03:26:03;6.00;99.90
52709;DHT22;38606;52.986;6.980;2023-02-02T03:28:30;5.40;99.90
52709;DHT22;38606;52.986;6.980;2023-02-02T03:30:58;5.30;99.90
52709;DHT22;38606;52.986;6.980;2023-02-02T03:33:25;5.50;99.90
52709;DHT22;38606;52.986;6.980;2023-02-02T03:35:51;5.90;99.90
52709;DHT22;38606;52.986;6.980;2023-02-02T03:38:17;6.30;99.90
52709;DHT22;38606;52.986;6.980;2023-02-02T03:40:43;6.10;99.90
52709;DHT22;38606;52.986;6.980;2023-02-02T03:43:09;5.50;99.90
52709;DHT22;38606;52.986;6.980;2023-02-02T03:45:34;5.60;99.90
52709;DHT22;38606;52.986;6.980;2023-02-02T03:48:05;3.70;99.90
52709;DHT22;38606;52.986;6.980;2023-02-02T03:50:31;5.70;99.90
52709;DHT22;38606;52.986;6.980;2023-02-02T03:52:57;6.90;99.90
52709;DHT22;38606;52.986;6.980;2023-02-02T03:55:25;5.70;99.90
52709;DHT22;38606;52.986;6.980;2023-02-02T03:57:50;6.70;99.90
52709;DHT22;38606;52.986;6.980;2023-02-02T04:00:16;5.60;99.90
52709;DHT22;38606;52.986;6.980;2023-02-02T04:02:42;6.90;99.90
52709;DHT22;38606;52.986;6.980;2023-02-02T04:05:08;5.90;99.90
52709;DHT22;38606;52.986;6.980;2023-02-02T04:07:33;6.10;99.90
52709;DHT22;38606;52.986;6.980;2023-02-02T04:09:59;6.00;99.90
52709;DHT22;38606;52.986;6.980;2023-02-02T04:12:25;5.80;99.90
52709;DHT22;38606;52.986;6.980;2023-02-02T04:14:51;6.70;99.90
52709;DHT22;38606;52.986;6.980;2023-02-02T04:17:16;5.80;99.90
52709;DHT22;38606;52.986;6.980;2023-02-02T04:19:42;5.90;99.90
52709;DHT22;38606;52.986;6.980;2023-02-02T04:22:08;6.80;99.90
52709;DHT22;38606;52.986;6.980;2023-02-02T04:24:33;6.10;99.90
52709;DHT22;38606;52.986;6.980;2023-02-02T04:26:59;6.00;99.90
52709;DHT22;38606;52.986;6.980;2023-02-02T04:29:25;5.90;99.90
52709;DHT22;38606;52.986;6.980;2023-02-02T04:31:51;6.20;99.90
52709;DHT22;38606;52.986;6.980;2023-02-02T04:34:17;6.60;99.90
52709;DHT22;38606;52.986;6.980;2023-02-02T04:36:42;6.00;99.90
52709;DHT22;38606;52.986;6.980;2023-02-02T04:39:12;6.60;99.90
52709;DHT22;38606;52.986;6.980;2023-02-02T04:41:38;5.90;99.90
52709;DHT22;38606;52.986;6.980;2023-02-02T04:44:03;5.80;99.90
52709;DHT22;38606;52.986;6.980;2023-02-02T04:46:31;5.90;99.90
52709;DHT22;38606;52.986;6.980;2023-02-02T04:48:56;7.30;99.90
52709;DHT22;38606;52.986;6.980;2023-02-02T04:51:22;5.60;99.90
52709;DHT22;38606;52.986;6.980;2023-02-02T04:53:48;5.60;99.90
52709;DHT22;38606;52.986;6.980;2023-02-02T04:56:15;5.60;99.90
52709;DHT22;38606;52.986;6.980;2023-02-02T04:58:42;5.70;99.90
52709;DHT22;38606;52.986;6.980;2023-02-02T05:01:14;6.50;99.90
52709;DHT22;38606;52.986;6.980;2023-02-02T05:03:41;5.60;99.90
52709;DHT22;38606;52.986;6.980;2023-02-02T05:06:07;5.70;99.90
52709;DHT22;38606;52.986;6.980;2023-02-02T05:08:33;5.70;99.90
52709;DHT22;38606;52.986;6.980;2023-02-02T05:10:59;5.60;99.90
52709;DHT22;38606;52.986;6.980;2023-02-02T05:13:24;3.50;99.90
52709;DHT22;38606;52.986;6.980;2023-02-02T05:15:50;5.60;99.90
52709;DHT22;38606;52.986;6.980;2023-02-02T05:18:16;5.60;99.90
52709;DHT22;38606;52.986;6.980;2023-02-02T05:20:41;5.60;99.90
52709;DHT22;38606;52.986;6.980;2023-02-02T05:23:07;6.20;99.90
52709;DHT22;38606;52.986;6.980;2023-02-02T05:25:33;6.00;99.90
52709;DHT22;38606;52.986;6.980;2023-02-02T05:27:58;4.80;99.90
52709;DHT22;38606;52.986;6.980;2023-02-02T05:30:24;5.70;99.90
52709;DHT22;38606;52.986;6.980;2023-02-02T05:32:50;6.70;99.90
52709;DHT22;38606;52.986;6.980;2023-02-02T05:35:15;5.70;99.90
52709;DHT22;38606;52.986;6.980;2023-02-02T05:37:42;5.70;99.90
52709;DHT22;38606;52.986;6.980;2023-02-02T05:40:08;5.50;99.90
52709;DHT22;38606;52.986;6.980;2023-02-02T05:42:34;5.30;99.90
52709;DHT22;38606;52.986;6.980;2023-02-02T05:45:00;6.60;99.90
52709;DHT22;38606;52.986;6.980;2023-02-02T05:47:26;6.50;99.90
52709;DHT22;38606;52.986;6.980;2023-02-02T05:49:51;5.90;99.90
52709;DHT22;38606;52.986;6.980;2023-02-02T05:52:19;5.50;99.90
52709;DHT22;38606;52.986;6.980;2023-02-02T05:54:46;5.70;99.90
52709;DHT22;38606;52.986;6.980;2023-02-02T05:57:12;6.50;99.90
52709;DHT22;38606;52.986;6.980;2023-02-02T05:59:38;5.50;99.90
52709;DHT22;38606;52.986;6.980;2023-02-02T06:02:04;5.50;99.90
52709;DHT22;38606;52.986;6.980;2023-02-02T06:04:29;6.00;99.90
52709;DHT22;38606;52.986;6.980;2023-02-02T06:06:55;6.50;99.90
52709;DHT22;38606;52.986;6.980;2023-02-02T06:09:21;7.00;99.90
52709;DHT22;38606;52.986;6.980;2023-02-02T06:11:48;5.90;99.90
52709;DHT22;38606;52.986;6.980;2023-02-02T06:14:14;5.40;99.90
52709;DHT22;38606;52.986;6.980;2023-02-02T06:16:40;5.50;99.90
52709;DHT22;38606;52.986;6.980;2023-02-02T06:19:06;5.40;99.90
52709;DHT22;38606;52.986;6.980;2023-02-02T06:21:31;5.40;99.90
52709;DHT22;38606;52.986;6.980;2023-02-02T06:23:58;6.90;99.90
52709;DHT22;38606;52.986;6.980;2023-02-02T06:26:24;5.50;99.90
52709;DHT22;38606;52.986;6.980;2023-02-02T06:28:52;5.60;99.90
52709;DHT22;38606;52.986;6.980;2023-02-02T06:31:18;6.80;99.90
52709;DHT22;38606;52.986;6.980;2023-02-02T06:33:52;5.80;99.90
52709;DHT22;38606;52.986;6.980;2023-02-02T06:36:21;5.50;99.90
52709;DHT22;38606;52.986;6.980;2023-02-02T06:38:51;5.30;99.90
52709;DHT22;38606;52.986;6.980;2023-02-02T06:41:18;5.50;99.90
52709;DHT22;38606;52.986;6.980;2023-02-02T06:43:47;5.70;99.90
52709;DHT22;38606;52.986;6.980;2023-02-02T06:46:13;5.90;99.90
52709;DHT22;38606;52.986;6.980;2023-02-02T06:48:39;5.40;99.90
52709;DHT22;38606;52.986;6.980;2023-02-02T06:51:05;6.80;99.90
52709;DHT22;38606;52.986;6.980;2023-02-02T06:53:32;5.40;99.90
52709;DHT22;38606;52.986;6.980;2023-02-02T06:56:00;5.40;99.90
52709;DHT22;38606;52.986;6.980;2023-02-02T06:58:26;5.50;99.90
52709;DHT22;38606;52.986;6.980;2023-02-02T07:00:52;6.60;99.90
52709;DHT22;38606;52.986;6.980;2023-02-02T07:03:19;5.30;99.90
52709;DHT22;38606;52.986;6.980;2023-02-02T07:05:48;6.30;99.90
52709;DHT22;38606;52.986;6.980;2023-02-02T07:08:14;6.40;99.90
52709;DHT22;38606;52.986;6.980;2023-02-02T07:10:40;5.90;99.90
52709;DHT22;38606;52.986;6.980;2023-02-02T07:13:07;5.60;99.90
52709;DHT22;38606;52.986;6.980;2023-02-02T07:15:33;6.60;99.90
52709;DHT22;38606;52.986;6.980;2023-02-02T07:17:59;6.30;99.90
52709;DHT22;38606;52.986;6.980;2023-02-02T07:20:26;6.80;99.90
52709;DHT22;38606;52.986;6.980;2023-02-02T07:22:51;5.30;99.90
52709;DHT22;38606;52.986;6.980;2023-02-02T07:25:17;5.70;99.90
52709;DHT22;38606;52.986;6.980;2023-02-02T07:27:43;5.60;99.90
52709;DHT22;38606;52.986;6.980;2023-02-02T07:30:09;6.60;99.90
52709;DHT22;38606;52.986;6.980;2023-02-02T07:32:35;5.40;99.90
52709;DHT22;38606;52.986;6.980;2023-02-02T07:35:01;5.40;99.90
52709;DHT22;38606;52.986;6.980;2023-02-02T07:37:26;5.30;99.90
52709;DHT22;38606;52.986;6.980;2023-02-02T07:39:52;5.50;99.90
52709;DHT22;38606;52.986;6.980;2023-02-02T07:42:18;5.40;99.90
52709;DHT22;38606;52.986;6.980;2023-02-02T07:44:44;5.30;99.90
52709;DHT22;38606;52.986;6.980;2023-02-02T07:47:09;5.50;99.90
52709;DHT22;38606;52.986;6.980;2023-02-02T07:49:35;5.40;99.90
52709;DHT22;38606;52.986;6.980;2023-02-02T07:52:01;5.40;99.90
52709;DHT22;38606;52.986;6.980;2023-02-02T07:54:26;5.40;99.90
52709;DHT22;38606;52.986;6.980;2023-02-02T07:56:52;5.40;99.90
52709;DHT22;38606;52.986;6.980;2023-02-02T07:59:18;6.10;99.90
52709;DHT22;38606;52.986;6.980;2023-02-02T08:01:43;5.60;99.90
52709;DHT22;38606;52.986;6.980;2023-02-02T08:04:09;5.40;99.90
52709;DHT22;38606;52.986;6.980;2023-02-02T08:06:37;5.40;99.90
52709;DHT22;38606;52.986;6.980;2023-02-02T08:09:05;5.60;99.90
52709;DHT22;38606;52.986;6.980;2023-02-02T08:11:36;5.50;99.90
52709;DHT22;38606;52.986;6.980;2023-02-02T08:14:03;5.60;99.90
52709;DHT22;38606;52.986;6.980;2023-02-02T08:16:31;5.60;99.90
52709;DHT22;38606;52.986;6.980;2023-02-02T08:18:57;5.50;99.90
52709;DHT22;38606;52.986;6.980;2023-02-02T08:21:22;6.40;99.90
52709;DHT22;38606;52.986;6.980;2023-02-02T08:23:48;7.40;99.90
52709;DHT22;38606;52.986;6.980;2023-02-02T08:26:24;5.70;99.90
52709;DHT22;38606;52.986;6.980;2023-02-02T08:28:56;6.90;99.90
52709;DHT22;38606;52.986;6.980;2023-02-02T08:31:31;6.60;99.90
52709;DHT22;38606;52.986;6.980;2023-02-02T08:33:57;6.50;99.90
52709;DHT22;38606;52.986;6.980;2023-02-02T08:36:25;5.70;99.90
52709;DHT22;38606;52.986;6.980;2023-02-02T08:38:51;5.60;99.90
52709;DHT22;38606;52.986;6.980;2023-02-02T08:41:20;6.10;99.90
52709;DHT22;38606;52.986;6.980;2023-02-02T08:43:46;7.10;99.90
52709;DHT22;38606;52.986;6.980;2023-02-02T08:46:13;5.80;99.90
52709;DHT22;38606;52.986;6.980;2023-02-02T08:48:39;5.90;99.90
52709;DHT22;38606;52.986;6.980;2023-02-02T08:51:06;5.90;99.90
52709;DHT22;38606;52.986;6.980;2023-02-02T08:53:32;7.10;99.90
52709;DHT22;38606;52.986;6.980;2023-02-02T08:58:24;5.80;99.90
52709;DHT22;38606;52.986;6.980;2023-02-02T09:00:50;5.90;99.90
52709;DHT22;38606;52.986;6.980;2023-02-02T09:03:16;5.80;99.90
52709;DHT22;38606;52.986;6.980;2023-02-02T09:05:41;5.90;99.90
52709;DHT22;38606;52.986;6.980;2023-02-02T09:08:09;6.00;99.90
52709;DHT22;38606;52.986;6.980;2023-02-02T09:10:36;5.90;99.90
52709;DHT22;38606;52.986;6.980;2023-02-02T09:13:02;6.10;99.90
52709;DHT22;38606;52.986;6.980;2023-02-02T09:15:28;6.10;99.90
52709;DHT22;38606;52.986;6.980;2023-02-02T09:17:54;6.20;99.90
52709;DHT22;38606;52.986;6.980;2023-02-02T09:20:20;7.50;99.90
52709;DHT22;38606;52.986;6.980;2023-02-02T09:22:46;7.10;99.90
52709;DHT22;38606;52.986;6.980;2023-02-02T09:25:12;6.20;99.90
52709;DHT22;38606;52.986;6.980;2023-02-02T09:27:38;6.30;99.90
52709;DHT22;38606;52.986;6.980;2023-02-02T09:30:06;6.20;99.90
52709;DHT22;38606;52.986;6.980;2023-02-02T09:32:32;6.30;99.90
52709;DHT22;38606;52.986;6.980;2023-02-02T09:34:58;7.60;99.90
52709;DHT22;38606;52.986;6.980;2023-02-02T09:37:25;6.70;99.90
52709;DHT22;38606;52.986;6.980;2023-02-02T09:39:51;6.40;99.90
52709;DHT22;38606;52.986;6.980;2023-02-02T09:47:51;7.50;99.90
52709;DHT22;38606;52.986;6.980;2023-02-02T09:53:09;6.60;99.90
52709;DHT22;38606;52.986;6.980;2023-02-02T09:55:38;6.60;99.90
52709;DHT22;38606;52.986;6.980;2023-02-02T10:03:26;7.50;99.90
52709;DHT22;38606;52.986;6.980;2023-02-02T10:08:33;6.90;99.90
52709;DHT22;38606;52.986;6.980;2023-02-02T10:11:08;6.60;99.90
52709;DHT22;38606;52.986;6.980;2023-02-02T10:13:39;6.80;99.90
52709;DHT22;38606;52.986;6.980;2023-02-02T10:16:16;7.60;99.90
52709;DHT22;38606;52.986;6.980;2023-02-02T10:19:00;6.70;99.90
52709;DHT22;38606;52.986;6.980;2023-02-02T10:24:26;7.00;99.90
52709;DHT22;38606;52.986;6.980;2023-02-02T10:26:56;7.90;99.90
52709;DHT22;38606;52.986;6.980;2023-02-02T10:34:50;7.20;99.90
52709;DHT22;38606;52.986;6.980;2023-02-02T10:37:47;7.40;99.90
52709;DHT22;38606;52.986;6.980;2023-02-02T10:43:27;7.30;99.90
52709;DHT22;38606;52.986;6.980;2023-02-02T10:48:40;7.20;99.90
52709;DHT22;38606;52.986;6.980;2023-02-02T10:51:24;7.20;99.90
52709;DHT22;38606;52.986;6.980;2023-02-02T10:53:54;7.60;99.90
52709;DHT22;38606;52.986;6.980;2023-02-02T10:56:44;7.60;99.90
52709;DHT22;38606;52.986;6.980;2023-02-02T10:59:20;7.40;99.90
52709;DHT22;38606;52.986;6.980;2023-02-02T11:01:48;7.50;99.90
52709;DHT22;38606;52.986;6.980;2023-02-02T11:04:22;8.10;99.90
52709;DHT22;38606;52.986;6.980;2023-02-02T11:07:06;7.60;99.90
52709;DHT22;38606;52.986;6.980;2023-02-02T11:09:37;7.30;99.90
52709;DHT22;38606;52.986;6.980;2023-02-02T11:12:30;7.40;99.90
52709;DHT22;38606;52.986;6.980;2023-02-02T11:15:04;7.50;99.90
52709;DHT22;38606;52.986;6.980;2023-02-02T11:17:31;7.30;99.90
52709;DHT22;38606;52.986;6.980;2023-02-02T11:19:57;7.40;99.90
52709;DHT22;38606;52.986;6.980;2023-02-02T11:22:36;7.40;99.90
52709;DHT22;38606;52.986;6.980;2023-02-02T11:25:09;8.40;99.90
52709;DHT22;38606;52.986;6.980;2023-02-02T11:27:46;7.20;99.90
52709;DHT22;38606;52.986;6.980;2023-02-02T11:30:33;7.40;99.90
52709;DHT22;38606;52.986;6.980;2023-02-02T11:33:19;7.40;99.90
52709;DHT22;38606;52.986;6.980;2023-02-02T11:35:57;7.40;99.90
52709;DHT22;38606;52.986;6.980;2023-02-02T11:38:25;7.40;99.90
52709;DHT22;38606;52.986;6.980;2023-02-02T11:41:10;7.40;99.90
52709;DHT22;38606;52.986;6.980;2023-02-02T11:43:46;7.10;99.90
52709;DHT22;38606;52.986;6.980;2023-02-02T11:46:19;7.30;99.90
52709;DHT22;38606;52.986;6.980;2023-02-02T11:49:02;7.30;99.90
52709;DHT22;38606;52.986;6.980;2023-02-02T11:51:30;7.40;99.90
52709;DHT22;38606;52.986;6.980;2023-02-02T11:54:06;8.60;99.90
52709;DHT22;38606;52.986;6.980;2023-02-02T11:56:34;7.40;99.90
52709;DHT22;38606;52.986;6.980;2023-02-02T11:59:00;7.40;99.90
52709;DHT22;38606;52.986;6.980;2023-02-02T12:01:46;7.20;99.90
52709;DHT22;38606;52.986;6.980;2023-02-02T12:06:38;8.30;99.90
52709;DHT22;38606;52.986;6.980;2023-02-02T12:09:27;7.30;99.90
52709;DHT22;38606;52.986;6.980;2023-02-02T12:12:01;7.30;99.90
52709;DHT22;38606;52.986;6.980;2023-02-02T12:15:01;7.30;99.90
52709;DHT22;38606;52.986;6.980;2023-02-02T12:17:41;7.20;99.90
52709;DHT22;38606;52.986;6.980;2023-02-02T12:22:51;7.20;99.90
52709;DHT22;38606;52.986;6.980;2023-02-02T12:33:11;7.40;99.90
52709;DHT22;38606;52.986;6.980;2023-02-02T12:43:44;7.50;99.90
52709;DHT22;38606;52.986;6.980;2023-02-02T12:49:30;7.40;99.90
52709;DHT22;38606;52.986;6.980;2023-02-02T13:06:32;7.60;99.90
52709;DHT22;38606;52.986;6.980;2023-02-02T13:08:43;7.70;99.90
52709;DHT22;38606;52.986;6.980;2023-02-02T13:11:14;7.40;99.90
52709;DHT22;38606;52.986;6.980;2023-02-02T13:14:20;7.80;99.90
52709;DHT22;38606;52.986;6.980;2023-02-02T13:16:50;7.60;99.90
52709;DHT22;38606;52.986;6.980;2023-02-02T13:19:40;7.70;99.90
52709;DHT22;38606;52.986;6.980;2023-02-02T13:22:11;7.60;99.90
52709;DHT22;38606;52.986;6.980;2023-02-02T13:24:41;7.70;99.90
52709;DHT22;38606;52.986;6.980;2023-02-02T13:27:18;8.40;99.90
52709;DHT22;38606;52.986;6.980;2023-02-02T13:29:50;7.40;99.90
52709;DHT22;38606;52.986;6.980;2023-02-02T13:32:37;9.00;99.90
52709;DHT22;38606;52.986;6.980;2023-02-02T13:35:30;7.80;99.90
52709;DHT22;38606;52.986;6.980;2023-02-02T13:38:15;7.60;99.90
52709;DHT22;38606;52.986;6.980;2023-02-02T13:40:43;7.50;99.90
52709;DHT22;38606;52.986;6.980;2023-02-02T13:57:40;7.10;99.90
52709;DHT22;38606;52.986;6.980;2023-02-02T14:00:33;7.50;99.90
52709;DHT22;38606;52.986;6.980;2023-02-02T14:03:05;7.70;99.90
52709;DHT22;38606;52.986;6.980;2023-02-02T14:05:37;7.40;99.90
52709;DHT22;38606;52.986;6.980;2023-02-02T14:08:20;7.40;99.90
52709;DHT22;38606;52.986;6.980;2023-02-02T14:13:24;7.40;99.90
52709;DHT22;38606;52.986;6.980;2023-02-02T14:18:55;7.40;99.90
52709;DHT22;38606;52.986;6.980;2023-02-02T14:34:29;7.00;99.90
52709;DHT22;38606;52.986;6.980;2023-02-02T14:45:31;9.00;99.90
52709;DHT22;38606;52.986;6.980;2023-02-02T14:53:21;7.20;99.90
52709;DHT22;38606;52.986;6.980;2023-02-02T14:55:55;7.10;99.90
52709;DHT22;38606;52.986;6.980;2023-02-02T15:06:30;7.20;99.90
52709;DHT22;38606;52.986;6.980;2023-02-02T15:12:14;7.00;99.90
52709;DHT22;38606;52.986;6.980;2023-02-02T15:14:41;7.00;99.90
52709;DHT22;38606;52.986;6.980;2023-02-02T15:20:14;6.90;99.90
52709;DHT22;38606;52.986;6.980;2023-02-02T15:25:48;8.10;99.90
52709;DHT22;38606;52.986;6.980;2023-02-02T15:34:03;6.80;99.90
52709;DHT22;38606;52.986;6.980;2023-02-02T15:36:37;6.80;99.90
52709;DHT22;38606;52.986;6.980;2023-02-02T15:41:51;8.10;99.90
52709;DHT22;38606;52.986;6.980;2023-02-02T15:44:36;6.90;99.90
52709;DHT22;38606;52.986;6.980;2023-02-02T15:47:11;8.20;99.90
52709;DHT22;38606;52.986;6.980;2023-02-02T15:49:37;6.70;99.90
52709;DHT22;38606;52.986;6.980;2023-02-02T15:52:20;6.80;99.90
52709;DHT22;38606;52.986;6.980;2023-02-02T15:54:53;6.90;99.90
52709;DHT22;38606;52.986;6.980;2023-02-02T15:57:31;6.80;99.90
52709;DHT22;38606;52.986;6.980;2023-02-02T15:59:59;6.80;99.90
52709;DHT22;38606;52.986;6.980;2023-02-02T16:02:46;7.70;99.90
52709;DHT22;38606;52.986;6.980;2023-02-02T16:08:14;7.00;99.90
52709;DHT22;38606;52.986;6.980;2023-02-02T16:10:40;7.50;99.90
52709;DHT22;38606;52.986;6.980;2023-02-02T16:13:06;7.00;99.90
52709;DHT22;38606;52.986;6.980;2023-02-02T16:15:32;7.00;99.90
52709;DHT22;38606;52.986;6.980;2023-02-02T16:17:59;7.00;99.90
52709;DHT22;38606;52.986;6.980;2023-02-02T16:20:27;7.00;99.90
52709;DHT22;38606;52.986;6.980;2023-02-02T16:22:55;7.00;99.90
52709;DHT22;38606;52.986;6.980;2023-02-02T16:25:28;6.90;99.90
52709;DHT22;38606;52.986;6.980;2023-02-02T16:27:55;5.70;99.90
52709;DHT22;38606;52.986;6.980;2023-02-02T16:32:50;7.00;99.90
52709;DHT22;38606;52.986;6.980;2023-02-02T16:35:37;7.20;99.90
52709;DHT22;38606;52.986;6.980;2023-02-02T16:38:35;8.00;99.90
52709;DHT22;38606;52.986;6.980;2023-02-02T16:41:09;7.00;99.90
52709;DHT22;38606;52.986;6.980;2023-02-02T16:43:38;7.20;99.90
52709;DHT22;38606;52.986;6.980;2023-02-02T16:46:08;7.10;99.90
52709;DHT22;38606;52.986;6.980;2023-02-02T16:48:45;7.00;99.90
52709;DHT22;38606;52.986;6.980;2023-02-02T16:51:21;7.60;99.90
52709;DHT22;38606;52.986;6.980;2023-02-02T16:54:18;7.40;99.90
52709;DHT22;38606;52.986;6.980;2023-02-02T16:56:48;7.30;99.90
52709;DHT22;38606;52.986;6.980;2023-02-02T17:01:48;7.10;99.90
52709;DHT22;38606;52.986;6.980;2023-02-02T17:04:34;7.90;99.90
52709;DHT22;38606;52.986;6.980;2023-02-02T17:07:09;7.60;99.90
52709;DHT22;38606;52.986;6.980;2023-02-02T17:09:39;8.50;99.90
52709;DHT22;38606;52.986;6.980;2023-02-02T17:12:22;7.20;99.90
52709;DHT22;38606;52.986;6.980;2023-02-02T17:14:59;8.50;99.90
52709;DHT22;38606;52.986;6.980;2023-02-02T17:17:27;7.20;99.90
52709;DHT22;38606;52.986;6.980;2023-02-02T17:19:53;8.30;99.90
52709;DHT22;38606;52.986;6.980;2023-02-02T17:22:21;7.40;99.90
52709;DHT22;38606;52.986;6.980;2023-02-02T17:24:50;7.30;99.90
52709;DHT22;38606;52.986;6.980;2023-02-02T17:27:27;8.40;99.90
52709;DHT22;38606;52.986;6.980;2023-02-02T17:29:53;7.30;99.90
52709;DHT22;38606;52.986;6.980;2023-02-02T17:32:19;7.40;99.90
52709;DHT22;38606;52.986;6.980;2023-02-02T17:34:45;7.30;99.90
52709;DHT22;38606;52.986;6.980;2023-02-02T17:37:11;7.50;99.90
52709;DHT22;38606;52.986;6.980;2023-02-02T17:39:37;7.40;99.90
52709;DHT22;38606;52.986;6.980;2023-02-02T17:42:03;8.30;99.90
52709;DHT22;38606;52.986;6.980;2023-02-02T17:44:29;7.60;99.90
52709;DHT22;38606;52.986;6.980;2023-02-02T17:46:55;7.30;99.90
52709;DHT22;38606;52.986;6.980;2023-02-02T17:49:21;7.50;99.90
52709;DHT22;38606;52.986;6.980;2023-02-02T17:51:47;7.40;99.90
52709;DHT22;38606;52.986;6.980;2023-02-02T17:54:14;7.60;99.90
52709;DHT22;38606;52.986;6.980;2023-02-02T17:56:41;8.20;99.90
52709;DHT22;38606;52.986;6.980;2023-02-02T17:59:08;7.40;99.90
52709;DHT22;38606;52.986;6.980;2023-02-02T18:01:37;7.40;99.90
52709;DHT22;38606;52.986;6.980;2023-02-02T18:04:06;8.20;99.90
52709;DHT22;38606;52.986;6.980;2023-02-02T18:06:32;7.40;99.90
52709;DHT22;38606;52.986;6.980;2023-02-02T18:08:57;7.60;99.90
52709;DHT22;38606;52.986;6.980;2023-02-02T18:11:23;8.40;99.90
52709;DHT22;38606;52.986;6.980;2023-02-02T18:13:49;7.50;99.90
52709;DHT22;38606;52.986;6.980;2023-02-02T18:16:14;7.60;99.90
52709;DHT22;38606;52.986;6.980;2023-02-02T18:18:40;7.50;99.90
52709;DHT22;38606;52.986;6.980;2023-02-02T18:21:08;7.40;99.90
52709;DHT22;38606;52.986;6.980;2023-02-02T18:23:34;7.50;99.90
52709;DHT22;38606;52.986;6.980;2023-02-02T18:26:20;7.50;99.90
52709;DHT22;38606;52.986;6.980;2023-02-02T18:28:47;7.50;99.90
52709;DHT22;38606;52.986;6.980;2023-02-02T18:31:15;8.10;99.90
52709;DHT22;38606;52.986;6.980;2023-02-02T18:33:44;7.80;99.90
52709;DHT22;38606;52.986;6.980;2023-02-02T18:36:12;7.60;99.90
52709;DHT22;38606;52.986;6.980;2023-02-02T18:38:40;7.80;99.90
52709;DHT22;38606;52.986;6.980;2023-02-02T18:41:08;7.60;99.90
52709;DHT22;38606;52.986;6.980;2023-02-02T18:43:33;7.60;99.90
52709;DHT22;38606;52.986;6.980;2023-02-02T18:46:01;7.70;99.90
52709;DHT22;38606;52.986;6.980;2023-02-02T18:48:29;7.70;99.90
52709;DHT22;38606;52.986;6.980;2023-02-02T18:50:55;7.60;99.90
52709;DHT22;38606;52.986;6.980;2023-02-02T18:53:21;8.00;99.90